createdAt,value
2022-10-13T00:01:43.528Z,7.13
2022-10-13T00:04:10.397Z,7.47
2022-10-13T00:06:36.743Z,6.93
2022-10-13T00:09:03.707Z,7.13
2022-10-13T00:11:30.831Z,6.93
2022-10-13T00:13:59.605Z,6.97
2022-10-13T00:16:27.012Z,6.40
2022-10-13T00:18:53.488Z,6.40
2022-10-13T00:21:23.610Z,6.37
2022-10-13T00:23:51.397Z,6.27
2022-10-13T00:26:18.115Z,6.17
2022-10-13T00:28:48.457Z,7.13
2022-10-13T00:31:30.902Z,6.53
2022-10-13T00:33:59.797Z,6.70
2022-10-13T00:36:28.983Z,6.50
2022-10-13T00:38:56.915Z,6.10
2022-10-13T00:41:23.255Z,6.40
2022-10-13T00:44:07.343Z,7.43
2022-10-13T00:46:36.897Z,7.50
2022-10-13T00:49:23.081Z,8.17
2022-10-13T00:51:50.601Z,7.97
2022-10-13T00:54:22.632Z,7.70
2022-10-13T00:56:51.376Z,7.33
2022-10-13T00:59:28.915Z,7.93
2022-10-13T01:01:57.720Z,8.03
2022-10-13T01:04:27.872Z,7.90
2022-10-13T01:06:55.671Z,8.00
2022-10-13T01:09:22.103Z,8.10
2022-10-13T01:11:55.320Z,8.07
2022-10-13T01:14:50.906Z,8.10
2022-10-13T01:17:51.090Z,7.87
2022-10-13T01:20:32.669Z,7.97
2022-10-13T01:23:17.364Z,7.97
2022-10-13T01:26:14.813Z,8.50
2022-10-13T01:28:59.964Z,8.57
2022-10-13T01:31:52.024Z,8.40
2022-10-13T01:34:38.539Z,8.73
2022-10-13T01:37:30.184Z,9.07
2022-10-13T01:40:17.739Z,10.07
2022-10-13T01:43:02.292Z,9.20
2022-10-13T01:45:35.580Z,10.10
2022-10-13T01:48:04.564Z,9.47
2022-10-13T01:50:32.801Z,9.67
2022-10-13T01:53:02.176Z,9.23
2022-10-13T01:55:29.683Z,9.53
2022-10-13T01:57:56.243Z,9.60
2022-10-13T02:00:22.889Z,10.43
2022-10-13T02:03:09.900Z,10.23
2022-10-13T02:05:51.587Z,9.63
2022-10-13T02:08:38.067Z,10.57
2022-10-13T02:11:15.601Z,9.23
2022-10-13T02:13:49.191Z,8.80
2022-10-13T02:16:16.231Z,10.33
2022-10-13T02:18:43.795Z,10.27
2022-10-13T02:21:10.521Z,9.60
2022-10-13T02:23:36.943Z,9.90
2022-10-13T02:26:03.809Z,9.27
2022-10-13T02:28:30.332Z,9.90
2022-10-13T02:30:56.836Z,9.80
2022-10-13T02:33:23.183Z,9.73
2022-10-13T02:35:49.699Z,9.03
2022-10-13T02:38:16.090Z,9.27
2022-10-13T02:40:42.483Z,9.10
2022-10-13T02:43:08.878Z,9.07
2022-10-13T02:45:35.253Z,8.97
2022-10-13T02:48:01.730Z,10.07
2022-10-13T02:50:28.286Z,8.80
2022-10-13T02:52:54.749Z,9.20
2022-10-13T02:55:21.315Z,10.10
2022-10-13T02:57:47.671Z,9.07
2022-10-13T03:00:14.743Z,9.03
2022-10-13T03:02:42.134Z,9.43
2022-10-13T03:05:09.477Z,10.37
2022-10-13T03:07:36.058Z,9.80
2022-10-13T03:10:02.481Z,9.50
2022-10-13T03:12:28.839Z,9.93
2022-10-13T03:14:55.191Z,10.13
2022-10-13T03:17:21.652Z,10.37
2022-10-13T03:19:48.265Z,10.00
2022-10-13T03:22:15.408Z,10.13
2022-10-13T03:24:42.459Z,8.83
2022-10-13T03:27:09.292Z,8.77
2022-10-13T03:29:35.683Z,8.77
2022-10-13T03:32:02.083Z,8.80
2022-10-13T03:34:28.447Z,9.13
2022-10-13T03:36:54.835Z,9.07
2022-10-13T03:39:22.063Z,9.13
2022-10-13T03:41:48.551Z,9.50
2022-10-13T03:44:14.898Z,8.43
2022-10-13T03:46:41.324Z,8.50
2022-10-13T03:49:07.739Z,9.17
2022-10-13T03:51:34.233Z,8.07
2022-10-13T03:54:00.588Z,8.93
2022-10-13T03:56:28.021Z,8.33
2022-10-13T03:58:59.688Z,8.13
2022-10-13T04:01:29.048Z,8.60
2022-10-13T04:03:56.682Z,8.27
2022-10-13T04:06:25.028Z,7.87
2022-10-13T04:08:52.272Z,8.50
2022-10-13T04:11:19.743Z,8.93
2022-10-13T04:13:46.381Z,8.83
2022-10-13T04:16:24.969Z,7.70
2022-10-13T04:19:00.458Z,8.70
2022-10-13T04:21:28.675Z,8.37
2022-10-13T04:23:57.216Z,7.10
2022-10-13T04:26:25.789Z,7.00
2022-10-13T04:28:55.360Z,7.13
2022-10-13T04:31:23.296Z,7.03
2022-10-13T04:33:50.246Z,6.43
2022-10-13T04:36:18.283Z,7.00
2022-10-13T04:38:44.807Z,7.00
2022-10-13T04:41:12.552Z,6.60
2022-10-13T04:43:38.916Z,6.37
2022-10-13T04:46:14.015Z,6.60
2022-10-13T04:48:41.022Z,6.40
2022-10-13T04:51:10.166Z,6.93
2022-10-13T04:53:36.775Z,7.90
2022-10-13T04:56:23.104Z,7.70
2022-10-13T04:58:49.737Z,7.10
2022-10-13T05:01:21.695Z,7.33
2022-10-13T05:03:53.456Z,6.97
2022-10-13T05:06:27.091Z,7.07
2022-10-13T05:08:53.535Z,6.97
2022-10-13T05:11:20.501Z,6.60
2022-10-13T05:13:48.161Z,7.47
2022-10-13T05:16:16.733Z,6.87
2022-10-13T05:18:43.440Z,5.90
2022-10-13T05:21:12.788Z,7.23
2022-10-13T05:23:40.331Z,6.80
2022-10-13T05:26:09.759Z,7.93
2022-10-13T05:28:36.504Z,7.10
2022-10-13T05:31:21.335Z,6.67
2022-10-13T05:33:48.581Z,6.80
2022-10-13T05:36:17.471Z,7.50
2022-10-13T05:38:43.908Z,6.90
2022-10-13T05:41:12.776Z,7.40
2022-10-13T05:43:40.941Z,7.77
2022-10-13T05:46:08.017Z,7.47
2022-10-13T05:48:34.982Z,7.40
2022-10-13T05:51:05.303Z,6.77
2022-10-13T05:53:34.809Z,6.83
2022-10-13T05:56:07.006Z,6.80
2022-10-13T05:58:43.141Z,7.17
2022-10-13T06:01:13.405Z,7.20
2022-10-13T06:03:42.088Z,7.63
2022-10-13T06:06:09.503Z,7.07
2022-10-13T06:08:36.990Z,7.67
2022-10-13T06:11:05.419Z,7.47
2022-10-13T06:13:31.808Z,8.30
2022-10-13T06:15:58.155Z,7.67
2022-10-13T06:18:24.843Z,7.20
2022-10-13T06:20:51.300Z,7.97
2022-10-13T06:23:17.728Z,7.17
2022-10-13T06:25:51.787Z,7.27
2022-10-13T06:28:19.199Z,7.30
2022-10-13T06:30:54.635Z,7.90
2022-10-13T06:33:22.125Z,7.73
2022-10-13T06:35:48.717Z,6.90
2022-10-13T06:38:15.059Z,6.97
2022-10-13T06:40:42.128Z,6.90
2022-10-13T06:43:09.597Z,7.43
2022-10-13T06:45:39.362Z,8.00
2022-10-13T06:48:05.928Z,8.20
2022-10-13T06:50:32.334Z,7.63
2022-10-13T06:52:58.692Z,7.20
2022-10-13T06:55:25.063Z,7.53
2022-10-13T06:57:52.383Z,8.10
2022-10-13T07:00:18.927Z,8.07
2022-10-13T07:02:45.385Z,7.87
2022-10-13T07:05:11.934Z,7.87
2022-10-13T07:07:38.271Z,8.00
2022-10-13T07:10:04.947Z,8.17
2022-10-13T07:12:31.296Z,7.77
2022-10-13T07:14:57.634Z,8.73
2022-10-13T07:17:24.174Z,8.70
2022-10-13T07:19:51.355Z,7.73
2022-10-13T07:22:17.868Z,8.07
2022-10-13T07:24:44.774Z,7.90
2022-10-13T07:27:11.168Z,7.87
2022-10-13T07:29:37.608Z,7.90
2022-10-13T07:32:04.172Z,7.73
2022-10-13T07:34:30.569Z,8.07
2022-10-13T07:36:56.943Z,7.57
2022-10-13T07:39:23.371Z,7.53
2022-10-13T07:41:51.320Z,7.70
2022-10-13T07:44:18.052Z,7.57
2022-10-13T07:46:44.718Z,6.90
2022-10-13T07:49:15.251Z,8.53
2022-10-13T07:51:43.086Z,7.80
2022-10-13T07:54:10.388Z,8.07
2022-10-13T07:56:37.438Z,7.53
2022-10-13T07:59:05.453Z,7.50
2022-10-13T08:01:32.127Z,7.20
2022-10-13T08:03:59.200Z,7.13
2022-10-13T08:06:27.468Z,8.10
2022-10-13T08:08:53.859Z,7.00
2022-10-13T08:11:20.338Z,7.10
2022-10-13T08:13:51.226Z,7.47
2022-10-13T08:16:18.188Z,7.37
2022-10-13T08:18:45.978Z,7.17
2022-10-13T08:21:57.457Z,7.00
2022-10-13T08:24:04.636Z,7.60
2022-10-13T08:26:32.393Z,7.03
2022-10-13T08:31:45.495Z,7.50
2022-10-13T08:34:12.575Z,7.27
2022-10-13T08:36:39.584Z,6.80
2022-10-13T08:39:06.453Z,6.57
2022-10-13T08:41:37.524Z,6.47
2022-10-13T08:44:59.230Z,5.43
2022-10-13T08:47:06.939Z,6.60
2022-10-13T08:49:33.870Z,5.80
2022-10-13T08:52:05.298Z,5.33
2022-10-13T08:54:33.281Z,6.00
2022-10-13T08:59:27.384Z,6.33
2022-10-13T09:01:55.472Z,5.30
2022-10-13T09:04:36.074Z,6.40
2022-10-13T09:07:07.031Z,5.77
2022-10-13T09:09:33.505Z,5.50
2022-10-13T09:12:00.332Z,6.40
2022-10-13T09:14:31.576Z,5.60
2022-10-13T09:17:16.307Z,4.90
2022-10-13T09:19:43.801Z,5.00
2022-10-13T09:22:22.237Z,5.10
2022-10-13T09:25:07.805Z,4.83
2022-10-13T09:27:59.177Z,5.40
2022-10-13T09:31:28.487Z,5.90
2022-10-13T09:34:00.923Z,5.00
2022-10-13T09:36:28.464Z,6.03
2022-10-13T09:39:16.437Z,5.50
2022-10-13T09:41:43.829Z,5.43
2022-10-13T09:44:17.504Z,5.27
2022-10-13T09:46:59.184Z,5.30
2022-10-13T09:49:40.270Z,5.00
2022-10-13T09:52:29.812Z,4.80
2022-10-13T09:55:00.930Z,4.40
2022-10-13T09:57:39.471Z,5.50
2022-10-13T10:00:15.302Z,4.70
2022-10-13T10:03:05.489Z,5.67
2022-10-13T10:05:44.936Z,5.60
2022-10-13T10:08:33.954Z,5.60
2022-10-13T10:11:12.479Z,4.83
2022-10-13T10:13:38.963Z,4.53
2022-10-13T10:16:20.505Z,4.97
2022-10-13T10:18:57.743Z,5.17
2022-10-13T10:21:27.981Z,4.87
2022-10-13T10:23:58.283Z,5.03
2022-10-13T10:26:47.087Z,4.97
2022-10-13T10:29:26.187Z,5.00
2022-10-13T10:32:11.211Z,5.70
2022-10-13T10:34:46.552Z,4.77
2022-10-13T10:37:40.549Z,4.63
2022-10-13T10:40:38.021Z,4.70
2022-10-13T10:43:13.685Z,5.13
2022-10-13T10:45:40.728Z,4.80
2022-10-13T10:48:32.961Z,4.63
2022-10-13T10:51:01.092Z,5.00
2022-10-13T10:53:40.426Z,4.83
2022-10-13T10:56:15.538Z,4.53
2022-10-13T10:59:05.115Z,4.90
2022-10-13T11:01:45.161Z,4.27
2022-10-13T11:04:20.827Z,4.97
2022-10-13T11:06:47.572Z,4.20
2022-10-13T11:09:14.023Z,4.90
2022-10-13T11:11:42.223Z,4.47
2022-10-13T11:14:08.709Z,4.33
2022-10-13T11:16:40.242Z,4.50
2022-10-13T11:19:29.710Z,4.93
2022-10-13T11:21:59.011Z,4.60
2022-10-13T11:24:39.244Z,4.67
2022-10-13T11:27:17.579Z,4.50
2022-10-13T11:29:47.257Z,4.33
2022-10-13T11:32:36.765Z,4.40
2022-10-13T11:35:05.912Z,3.87
2022-10-13T11:37:51.733Z,4.10
2022-10-13T11:40:35.122Z,4.00
2022-10-13T11:43:09.815Z,4.10
2022-10-13T11:46:14.677Z,4.20
2022-10-13T11:49:02.786Z,4.07
2022-10-13T11:51:38.550Z,4.20
2022-10-13T11:54:34.561Z,3.63
2022-10-13T11:57:01.419Z,3.67
2022-10-13T11:59:33.687Z,3.90
2022-10-13T12:02:14.517Z,3.67
2022-10-13T12:04:46.806Z,4.30
2022-10-13T12:07:15.741Z,3.73
2022-10-13T12:09:51.563Z,4.07
2022-10-13T12:12:24.535Z,4.50
2022-10-13T12:14:54.456Z,3.67
2022-10-13T12:17:31.797Z,4.00
2022-10-13T12:20:20.334Z,3.87
2022-10-13T12:22:51.170Z,4.23
2022-10-13T12:25:19.639Z,4.13
2022-10-13T12:27:50.091Z,3.57
2022-10-13T12:30:25.290Z,3.87
2022-10-13T12:32:54.353Z,3.60
2022-10-13T12:35:32.513Z,4.20
2022-10-13T12:38:13.173Z,3.83
2022-10-13T12:40:40.694Z,4.00
2022-10-13T12:43:07.219Z,4.30
2022-10-13T12:45:34.880Z,4.00
2022-10-13T12:48:01.404Z,3.80
2022-10-13T12:50:36.899Z,3.97
2022-10-13T12:53:12.019Z,3.27
2022-10-13T12:55:55.083Z,3.73
2022-10-13T12:58:28.965Z,3.50
2022-10-13T13:00:58.126Z,3.50
2022-10-13T13:03:29.090Z,3.40
2022-10-13T13:06:31.859Z,3.47
2022-10-13T13:09:15.672Z,3.70
2022-10-13T13:11:42.007Z,3.20
2022-10-13T13:14:35.565Z,3.10
2022-10-13T13:17:09.290Z,3.17
2022-10-13T13:19:36.618Z,3.33
2022-10-13T13:22:05.687Z,3.17
2022-10-13T13:24:40.114Z,3.03
2022-10-13T13:27:19.916Z,3.10
2022-10-13T13:29:46.943Z,3.07
2022-10-13T13:32:19.834Z,3.10
2022-10-13T13:34:46.898Z,3.40
2022-10-13T13:37:24.590Z,3.37
2022-10-13T13:39:51.080Z,3.20
2022-10-13T13:42:17.749Z,3.40
2022-10-13T13:44:44.171Z,2.90
2022-10-13T13:47:16.953Z,3.10
2022-10-13T13:49:43.648Z,3.20
2022-10-13T13:52:10.071Z,3.30
2022-10-13T13:54:36.540Z,3.57
2022-10-13T13:57:03.188Z,3.53
2022-10-13T13:59:29.580Z,3.17
2022-10-13T14:01:56.062Z,3.50
2022-10-13T14:04:22.606Z,3.30
2022-10-13T14:06:49.020Z,3.03
2022-10-13T14:09:15.442Z,3.60
2022-10-13T14:11:41.823Z,3.93
2022-10-13T14:14:08.230Z,3.30
2022-10-13T14:16:34.611Z,3.30
2022-10-13T14:19:01.060Z,2.90
2022-10-13T14:21:27.462Z,3.70
2022-10-13T14:23:53.875Z,3.30
2022-10-13T14:26:20.332Z,3.63
2022-10-13T14:28:46.984Z,3.10
2022-10-13T14:31:13.504Z,3.33
2022-10-13T14:33:39.892Z,3.03
2022-10-13T14:36:07.417Z,3.53
2022-10-13T14:38:34.524Z,3.50
2022-10-13T14:41:02.460Z,3.53
2022-10-13T14:43:29.419Z,3.50
2022-10-13T14:45:56.220Z,3.70
2022-10-13T14:48:24.760Z,3.90
2022-10-13T14:50:52.692Z,3.60
2022-10-13T14:53:19.132Z,3.60
2022-10-13T14:55:45.543Z,4.00
2022-10-13T14:58:12.271Z,3.47
2022-10-13T15:00:38.887Z,4.57
2022-10-13T15:03:05.299Z,6.70
2022-10-13T15:05:31.872Z,4.37
2022-10-13T15:07:58.284Z,5.23
2022-10-13T15:10:24.778Z,3.53
2022-10-13T15:12:51.188Z,5.10
2022-10-13T15:15:17.703Z,4.03
2022-10-13T15:17:44.076Z,4.93
2022-10-13T15:20:10.771Z,5.53
2022-10-13T15:22:37.405Z,5.10
2022-10-13T15:25:07.758Z,4.93
2022-10-13T15:27:39.310Z,5.23
2022-10-13T15:30:08.839Z,5.00
2022-10-13T15:32:35.326Z,6.33
2022-10-13T15:35:02.020Z,5.43
2022-10-13T15:37:28.377Z,5.23
2022-10-13T15:39:57.398Z,5.23
2022-10-13T15:42:24.304Z,5.13
2022-10-13T15:45:08.781Z,4.63
2022-10-13T15:47:36.419Z,5.00
2022-10-13T15:50:03.648Z,5.77
2022-10-13T15:52:34.690Z,6.80
2022-10-13T15:55:02.025Z,5.80
2022-10-13T15:57:28.505Z,5.47
2022-10-13T15:59:54.884Z,5.43
2022-10-13T16:02:23.209Z,6.17
2022-10-13T16:04:50.640Z,6.73
2022-10-13T16:07:18.407Z,7.07
2022-10-13T16:09:45.259Z,8.17
2022-10-13T16:12:11.693Z,7.57
2022-10-13T16:14:38.095Z,6.07
2022-10-13T16:17:04.466Z,7.90
2022-10-13T16:19:30.992Z,7.23
2022-10-13T16:21:57.435Z,7.03
2022-10-13T16:24:23.884Z,6.27
2022-10-13T16:26:50.292Z,7.30
2022-10-13T16:29:16.912Z,7.00
2022-10-13T16:31:43.358Z,7.73
2022-10-13T16:34:10.609Z,7.10
2022-10-13T16:36:37.136Z,7.40
2022-10-13T16:39:03.607Z,6.97
2022-10-13T16:41:30.017Z,7.27
2022-10-13T16:43:56.597Z,7.63
2022-10-13T16:46:23.703Z,7.50
2022-10-13T16:48:50.188Z,7.13
2022-10-13T16:51:22.529Z,7.27
2022-10-13T16:54:03.908Z,6.27
2022-10-13T16:56:31.793Z,7.73
2022-10-13T16:59:04.548Z,7.77
2022-10-13T17:01:32.396Z,7.43
2022-10-13T17:03:59.718Z,8.43
2022-10-13T17:06:28.465Z,8.37
2022-10-13T17:08:57.743Z,8.47
2022-10-13T17:11:30.373Z,9.03
2022-10-13T17:13:58.038Z,8.60
2022-10-13T17:16:25.284Z,8.70
2022-10-13T17:18:51.755Z,8.17
2022-10-13T17:21:18.337Z,7.23
2022-10-13T17:23:48.678Z,8.20
2022-10-13T17:26:17.438Z,8.27
2022-10-13T17:28:44.548Z,7.10
2022-10-13T17:31:20.651Z,7.20
2022-10-13T17:33:48.442Z,7.47
2022-10-13T17:36:16.726Z,6.90
2022-10-13T17:38:43.762Z,7.77
2022-10-13T17:41:11.184Z,6.80
2022-10-13T17:43:39.011Z,6.77
2022-10-13T17:46:35.026Z,8.00
2022-10-13T17:48:59.396Z,6.73
2022-10-13T17:51:25.971Z,6.60
2022-10-13T17:53:52.881Z,7.80
2022-10-13T17:56:21.881Z,7.07
2022-10-13T17:58:50.274Z,7.43
2022-10-13T18:01:19.714Z,7.83
2022-10-13T18:03:49.814Z,8.33
2022-10-13T18:06:17.020Z,7.77
2022-10-13T18:08:43.839Z,8.80
2022-10-13T18:11:16.902Z,8.13
2022-10-13T18:13:44.999Z,8.30
2022-10-13T18:16:22.213Z,8.00
2022-10-13T18:18:50.054Z,8.57
2022-10-13T18:21:19.542Z,8.20
2022-10-13T18:23:46.281Z,8.13
2022-10-13T18:26:15.258Z,8.97
2022-10-13T18:28:43.594Z,8.30
2022-10-13T18:31:13.876Z,8.83
2022-10-13T18:33:40.902Z,8.93
2022-10-13T18:36:15.153Z,10.63
2022-10-13T18:38:41.718Z,9.33
2022-10-13T18:41:08.252Z,8.50
2022-10-13T18:43:34.819Z,8.27
2022-10-13T18:46:02.379Z,8.30
2022-10-13T18:48:28.893Z,8.07
2022-10-13T18:50:55.323Z,8.27
2022-10-13T18:53:21.799Z,9.07
2022-10-13T18:55:48.405Z,8.17
2022-10-13T18:58:14.856Z,8.70
2022-10-13T19:00:41.290Z,8.03
2022-10-13T19:03:08.227Z,10.73
2022-10-13T19:05:39.317Z,9.20
2022-10-13T19:08:09.317Z,9.00
2022-10-13T19:10:36.448Z,10.80
2022-10-13T19:13:03.650Z,12.93
2022-10-13T19:15:30.206Z,13.23
2022-10-13T19:17:56.603Z,13.50
2022-10-13T19:20:23.032Z,16.97
2022-10-13T19:22:49.474Z,11.57
2022-10-13T19:25:15.868Z,10.50
2022-10-13T19:27:42.279Z,8.80
2022-10-13T19:30:09.381Z,8.70
2022-10-13T19:32:38.591Z,9.23
2022-10-13T19:35:05.672Z,10.30
2022-10-13T19:37:32.186Z,9.50
2022-10-13T19:39:58.580Z,8.53
2022-10-13T19:42:25.009Z,8.80
2022-10-13T19:44:51.379Z,10.07
2022-10-13T19:47:18.115Z,8.97
2022-10-13T19:49:44.735Z,8.87
2022-10-13T19:52:11.134Z,8.40
2022-10-13T19:54:37.506Z,9.20
2022-10-13T19:57:03.909Z,9.07
2022-10-13T19:59:30.394Z,9.17
2022-10-13T20:01:57.412Z,8.47
2022-10-13T20:04:24.789Z,8.37
2022-10-13T20:06:51.405Z,8.20
2022-10-13T20:09:19.423Z,9.90
2022-10-13T20:11:48.161Z,9.37
2022-10-13T20:14:14.913Z,9.03
2022-10-13T20:16:41.817Z,9.13
2022-10-13T20:19:08.252Z,9.83
2022-10-13T20:21:34.636Z,9.73
2022-10-13T20:24:01.034Z,9.67
2022-10-13T20:26:27.480Z,10.23
2022-10-13T20:28:54.906Z,8.37
2022-10-13T20:31:22.704Z,8.77
2022-10-13T20:33:54.140Z,7.93
2022-10-13T20:36:20.804Z,8.50
2022-10-13T20:38:49.099Z,8.83
2022-10-13T20:41:27.433Z,9.97
2022-10-13T20:43:56.204Z,8.53
2022-10-13T20:46:26.045Z,7.80
2022-10-13T20:51:40.712Z,8.23
2022-10-13T20:54:07.699Z,8.60
2022-10-13T20:56:34.073Z,8.43
2022-10-13T20:59:24.050Z,8.87
2022-10-13T21:01:50.429Z,8.73
2022-10-13T21:04:16.833Z,8.43
2022-10-13T21:06:43.403Z,8.77
2022-10-13T21:09:09.943Z,8.27
2022-10-13T21:11:36.510Z,9.13
2022-10-13T21:14:06.676Z,8.77
2022-10-13T21:16:33.219Z,10.07
2022-10-13T21:18:59.677Z,8.60
2022-10-13T21:21:31.323Z,8.77
2022-10-13T21:24:04.390Z,8.63
2022-10-13T21:26:32.274Z,9.40
2022-10-13T21:28:59.383Z,8.60
2022-10-13T21:31:26.450Z,8.70
2022-10-13T21:33:53.577Z,7.80
2022-10-13T21:36:31.669Z,8.90
2022-10-13T21:39:00.403Z,8.87
2022-10-13T21:41:28.010Z,7.63
2022-10-13T21:43:54.779Z,7.90
2022-10-13T21:46:25.841Z,8.40
2022-10-13T21:48:54.138Z,8.40
2022-10-13T21:51:25.845Z,8.37
2022-10-13T21:53:54.871Z,9.37
2022-10-13T21:56:22.229Z,7.97
2022-10-13T21:58:49.231Z,8.63
2022-10-13T22:01:19.825Z,9.27
2022-10-13T22:03:47.130Z,8.67
2022-10-13T22:06:19.287Z,8.93
2022-10-13T22:08:49.435Z,8.87
2022-10-13T22:11:16.725Z,9.10
2022-10-13T22:13:43.076Z,8.07
2022-10-13T22:16:12.707Z,9.57
2022-10-13T22:18:39.107Z,9.37
2022-10-13T22:21:21.119Z,8.80
2022-10-13T22:23:48.173Z,9.53
2022-10-13T22:26:17.044Z,10.00
2022-10-13T22:28:44.159Z,10.43
2022-10-13T22:31:13.872Z,10.60
2022-10-13T22:33:41.912Z,9.27
2022-10-13T22:36:10.651Z,8.87
2022-10-13T22:38:37.088Z,9.83
2022-10-13T22:41:05.828Z,8.17
2022-10-13T22:43:32.749Z,7.70
2022-10-13T22:45:59.240Z,8.50
2022-10-13T22:48:25.619Z,7.77
2022-10-13T22:50:52.188Z,8.53
2022-10-13T22:53:18.860Z,7.07
2022-10-13T22:55:45.501Z,7.83
2022-10-13T22:58:12.062Z,7.57
2022-10-13T23:00:39.171Z,8.20
2022-10-13T23:03:06.217Z,7.53
2022-10-13T23:05:32.701Z,7.90
2022-10-13T23:07:59.116Z,7.83
2022-10-13T23:10:25.677Z,7.70
2022-10-13T23:12:52.074Z,7.77
2022-10-13T23:15:18.435Z,7.70
2022-10-13T23:17:45.217Z,7.50
2022-10-13T23:20:12.050Z,7.17
2022-10-13T23:22:38.436Z,7.70
2022-10-13T23:25:05.101Z,7.07
2022-10-13T23:27:31.456Z,7.07
2022-10-13T23:29:57.823Z,7.83
2022-10-13T23:32:24.243Z,8.00
2022-10-13T23:34:50.729Z,7.53
2022-10-13T23:37:17.653Z,8.10
2022-10-13T23:39:43.984Z,7.77
2022-10-13T23:42:10.390Z,7.00
2022-10-13T23:44:36.704Z,7.40
2022-10-13T23:47:03.909Z,6.60
2022-10-13T23:49:30.255Z,7.03
2022-10-13T23:51:56.676Z,7.43
2022-10-13T23:54:23.019Z,7.43
2022-10-13T23:56:49.379Z,7.43
2022-10-13T23:59:15.763Z,6.93
